Terminal Aerodrome Forecast
Issued by NWS

Home | Current Version | Previous Version | Text Only | Print | Product List | Glossary On
Versions: 1 2 3 4 5 6 7 8 9 10 11 12 13 14 15 16 17 18
000
FTUS44 KLZK 221100
TAFLLQ
TAF
KLLQ 221121Z 2212/2312 17008G15KT 4SM BR VCSH BKN008 OVC012
      TEMPO 2212/2216 2SM -DZ BR BKN003
     FM221600 17008G16KT P6SM VCSH SCT005 OVC010
      TEMPO 2216/2220 BKN008
     FM222000 20008KT P6SM VCTS SCT015 OVC025CB
      TEMPO 2222/2302 -TSRA
     FM230200 22006KT P6SM BKN025 BKN250
     FM230600 29006KT P6SM SCT025 BKN250=

USA.gov is the U.S. government's official web portal to all federal, state and local government web resources and services.